EDV5063 KSGF-KATL
Flight info
| Callsign | EDV5063 |
|---|---|
| Flight time | N/A |
| Altitude | 33000 |
| Route | MEMFS HUTCC KNSAW RUSSA GLAVN2 |
| Aircraft | CRJ9/M-SDFGIRWY/S |
Departure
| Time | 2026-04-26 11:30 |
|---|---|
| Airport | Springfield Branson National Airport (KSGF) |
Arrival
| Time | N/A |
|---|---|
| Airport | Hartsfield Jackson Atlanta International Airport (KATL) |
| Time | Latitude | Longitude | Altitude | Speed | Heading |
|---|---|---|---|---|---|
| 2026-04-26 10:53 | 37.24023 | -93.39527 | 1267 ft | 0 kts | 289° |
| 2026-04-26 11:19 | 37.24022 | -93.39523 | 1267 ft | 3 kts | 288° |
| 2026-04-26 11:19 | 37.24012 | -93.39497 | 1273 ft | 4 kts | 323° |
| 2026-04-26 11:19 | 37.23993 | -93.39484 | 1267 ft | 4 kts | 334° |
| 2026-04-26 11:20 | 37.23984 | -93.39479 | 1271 ft | 0 kts | 334° |
| 2026-04-26 11:23 | 37.23985 | -93.39479 | 1267 ft | 1 kts | 334° |
| 2026-04-26 11:23 | 37.23987 | -93.39480 | 1267 ft | 1 kts | 352° |
| 2026-04-26 11:23 | 37.24001 | -93.39475 | 1273 ft | 4 kts | 29° |
| 2026-04-26 11:23 | 37.24038 | -93.39448 | 1273 ft | 8 kts | 27° |
| 2026-04-26 11:24 | 37.24101 | -93.39431 | 1270 ft | 10 kts | 341° |
| 2026-04-26 11:24 | 37.24137 | -93.39495 | 1270 ft | 10 kts | 295° |
| 2026-04-26 11:24 | 37.24190 | -93.39531 | 1267 ft | 10 kts | 8° |
| 2026-04-26 11:24 | 37.24263 | -93.39499 | 1268 ft | 13 kts | 21° |
| 2026-04-26 11:25 | 37.24337 | -93.39428 | 1270 ft | 15 kts | 51° |
| 2026-04-26 11:25 | 37.24396 | -93.39333 | 1272 ft | 6 kts | 52° |
| 2026-04-26 11:25 | 37.24400 | -93.39327 | 1273 ft | 2 kts | 52° |
| 2026-04-26 11:25 | 37.24411 | -93.39309 | 1273 ft | 4 kts | 52° |
| 2026-04-26 11:26 | 37.24441 | -93.39279 | 1275 ft | 8 kts | 17° |
| 2026-04-26 11:26 | 37.24512 | -93.39317 | 1274 ft | 15 kts | 322° |
| 2026-04-26 11:26 | 37.24611 | -93.39413 | 1274 ft | 19 kts | 322° |
| 2026-04-26 11:26 | 37.24681 | -93.39482 | 1276 ft | 19 kts | 322° |
| 2026-04-26 11:27 | 37.24789 | -93.39588 | 1276 ft | 21 kts | 322° |
| 2026-04-26 11:27 | 37.24905 | -93.39703 | 1277 ft | 21 kts | 322° |
| 2026-04-26 11:27 | 37.25022 | -93.39819 | 1274 ft | 22 kts | 322° |
| 2026-04-26 11:27 | 37.25144 | -93.39939 | 1273 ft | 22 kts | 322° |
| 2026-04-26 11:28 | 37.25267 | -93.40060 | 1270 ft | 23 kts | 322° |
| 2026-04-26 11:28 | 37.25367 | -93.40159 | 1272 ft | 14 kts | 322° |
| 2026-04-26 11:28 | 37.25445 | -93.40156 | 1271 ft | 13 kts | 48° |
| 2026-04-26 11:28 | 37.25499 | -93.40070 | 1269 ft | 7 kts | 52° |
| 2026-04-26 11:29 | 37.25495 | -93.40024 | 1269 ft | 6 kts | 130° |
| 2026-04-26 11:29 | 37.25411 | -93.39940 | 1269 ft | 38 kts | 142° |
| 2026-04-26 11:29 | 37.25026 | -93.39557 | 1275 ft | 101 kts | 142° |
| 2026-04-26 11:29 | 37.24333 | -93.38872 | 1279 ft | 150 kts | 141° |
| 2026-04-26 11:30 | 37.23429 | -93.37998 | 1563 ft | 168 kts | 143° |
| 2026-04-26 11:30 | 37.22459 | -93.37143 | 2185 ft | 170 kts | 144° |
| 2026-04-26 11:30 | 37.21561 | -93.36213 | 2843 ft | 172 kts | 126° |
| 2026-04-26 11:30 | 37.21015 | -93.34836 | 3283 ft | 186 kts | 117° |
| 2026-04-26 11:31 | 37.20449 | -93.33271 | 3600 ft | 207 kts | 113° |
| 2026-04-26 11:31 | 37.19869 | -93.31515 | 3966 ft | 231 kts | 115° |
| 2026-04-26 11:31 | 37.19092 | -93.29664 | 4502 ft | 248 kts | 123° |
| 2026-04-26 11:31 | 37.18066 | -93.27841 | 5092 ft | 263 kts | 128° |
| 2026-04-26 11:32 | 37.16915 | -93.26009 | 5863 ft | 270 kts | 130° |
| 2026-04-26 11:32 | 37.15719 | -93.24162 | 6649 ft | 275 kts | 130° |
| 2026-04-26 11:32 | 37.14506 | -93.22272 | 7400 ft | 281 kts | 129° |
| 2026-04-26 11:32 | 37.13276 | -93.20334 | 8148 ft | 287 kts | 129° |
| 2026-04-26 11:33 | 37.12024 | -93.18359 | 8936 ft | 292 kts | 129° |
| 2026-04-26 11:33 | 37.10759 | -93.16346 | 9654 ft | 300 kts | 129° |
| 2026-04-26 11:33 | 37.09431 | -93.14229 | 10083 ft | 317 kts | 128° |
| 2026-04-26 11:33 | 37.08042 | -93.12017 | 10690 ft | 325 kts | 128° |
| 2026-04-26 11:34 | 37.06636 | -93.09779 | 11412 ft | 329 kts | 128° |
| 2026-04-26 11:34 | 37.05210 | -93.07512 | 12128 ft | 334 kts | 128° |
| 2026-04-26 11:34 | 37.03763 | -93.05214 | 12837 ft | 338 kts | 128° |
| 2026-04-26 11:34 | 37.02297 | -93.02886 | 13563 ft | 342 kts | 129° |
| 2026-04-26 11:35 | 37.00814 | -93.00531 | 14219 ft | 347 kts | 129° |
| 2026-04-26 11:35 | 36.99310 | -92.98148 | 14845 ft | 351 kts | 129° |
| 2026-04-26 11:35 | 36.97787 | -92.95734 | 15459 ft | 356 kts | 129° |
| 2026-04-26 11:35 | 36.96243 | -92.93289 | 16078 ft | 360 kts | 129° |
| 2026-04-26 11:36 | 36.94677 | -92.90813 | 16682 ft | 364 kts | 129° |
| 2026-04-26 11:36 | 36.93097 | -92.88312 | 17263 ft | 369 kts | 129° |
| 2026-04-26 11:36 | 36.91495 | -92.85782 | 17832 ft | 373 kts | 129° |
| 2026-04-26 11:36 | 36.89874 | -92.83225 | 18378 ft | 378 kts | 129° |
| 2026-04-26 11:37 | 36.88237 | -92.80641 | 18877 ft | 381 kts | 129° |
| 2026-04-26 11:37 | 36.86581 | -92.78035 | 19362 ft | 385 kts | 130° |
| 2026-04-26 11:37 | 36.84909 | -92.75405 | 19839 ft | 389 kts | 130° |
| 2026-04-26 11:37 | 36.83222 | -92.72753 | 20325 ft | 392 kts | 130° |
| 2026-04-26 11:38 | 36.81513 | -92.70066 | 20786 ft | 396 kts | 130° |
| 2026-04-26 11:38 | 36.79791 | -92.67363 | 21247 ft | 400 kts | 130° |
| 2026-04-26 11:38 | 36.78053 | -92.64637 | 21690 ft | 403 kts | 131° |
| 2026-04-26 11:38 | 36.76298 | -92.61885 | 22122 ft | 407 kts | 131° |
| 2026-04-26 11:39 | 36.74528 | -92.59110 | 22554 ft | 410 kts | 131° |
| 2026-04-26 11:39 | 36.72741 | -92.56313 | 22978 ft | 414 kts | 131° |
| 2026-04-26 11:39 | 36.70936 | -92.53492 | 23383 ft | 418 kts | 131° |
| 2026-04-26 11:39 | 36.69118 | -92.50649 | 23751 ft | 421 kts | 131° |
| 2026-04-26 11:40 | 36.67287 | -92.47789 | 24121 ft | 423 kts | 131° |
| 2026-04-26 11:40 | 36.65443 | -92.44914 | 24467 ft | 426 kts | 131° |
| 2026-04-26 11:40 | 36.63591 | -92.42025 | 24810 ft | 429 kts | 131° |
| 2026-04-26 11:40 | 36.61722 | -92.39113 | 25150 ft | 431 kts | 131° |
| 2026-04-26 11:41 | 36.59846 | -92.36194 | 25485 ft | 434 kts | 131° |
| 2026-04-26 11:42 | 36.46406 | -92.15344 | 27619 ft | 450 kts | 132° |
| 2026-04-26 11:43 | 36.44440 | -92.12304 | 27901 ft | 452 kts | 132° |
| 2026-04-26 11:43 | 36.42463 | -92.09249 | 28157 ft | 455 kts | 132° |
| 2026-04-26 11:43 | 36.40475 | -92.06181 | 28425 ft | 457 kts | 132° |
| 2026-04-26 11:43 | 36.38475 | -92.03099 | 28680 ft | 460 kts | 132° |
| 2026-04-26 11:44 | 36.36466 | -92.00002 | 28935 ft | 462 kts | 132° |
| 2026-04-26 11:44 | 36.34445 | -91.96893 | 29191 ft | 464 kts | 132° |
| 2026-04-26 11:44 | 36.32415 | -91.93772 | 29429 ft | 466 kts | 132° |
| 2026-04-26 11:44 | 36.30375 | -91.90638 | 29666 ft | 468 kts | 132° |
| 2026-04-26 11:45 | 36.28327 | -91.87492 | 29919 ft | 470 kts | 132° |
| 2026-04-26 11:45 | 36.26266 | -91.84339 | 30116 ft | 472 kts | 132° |
| 2026-04-26 11:45 | 36.24200 | -91.81169 | 30295 ft | 474 kts | 133° |
| 2026-04-26 11:45 | 36.22121 | -91.77990 | 30477 ft | 476 kts | 133° |
| 2026-04-26 11:46 | 36.20033 | -91.74800 | 30653 ft | 478 kts | 133° |
| 2026-04-26 11:46 | 36.17936 | -91.71596 | 30834 ft | 480 kts | 133° |
| 2026-04-26 11:46 | 36.15828 | -91.68380 | 30987 ft | 482 kts | 133° |
| 2026-04-26 11:46 | 36.13710 | -91.65154 | 31157 ft | 484 kts | 133° |
| 2026-04-26 11:47 | 36.11584 | -91.61914 | 31324 ft | 486 kts | 133° |
| 2026-04-26 11:47 | 36.09445 | -91.58662 | 31490 ft | 488 kts | 133° |
| 2026-04-26 11:47 | 36.07299 | -91.55400 | 31686 ft | 489 kts | 133° |
| 2026-04-26 11:47 | 36.05156 | -91.52147 | 31901 ft | 489 kts | 133° |
| 2026-04-26 11:48 | 36.03002 | -91.48880 | 32101 ft | 490 kts | 134° |
| 2026-04-26 11:48 | 36.00846 | -91.45614 | 32291 ft | 491 kts | 134° |
| 2026-04-26 11:48 | 35.98686 | -91.42346 | 32457 ft | 492 kts | 134° |
| 2026-04-26 11:48 | 35.96521 | -91.39072 | 32635 ft | 493 kts | 134° |
| 2026-04-26 11:49 | 35.94351 | -91.35794 | 32793 ft | 494 kts | 134° |
| 2026-04-26 11:49 | 35.92175 | -91.32512 | 32889 ft | 497 kts | 134° |
| 2026-04-26 11:49 | 35.87757 | -91.25844 | 32953 ft | 506 kts | 134° |
| 2026-04-26 11:50 | 35.83260 | -91.19073 | 32958 ft | 515 kts | 134° |
| 2026-04-26 11:50 | 35.78696 | -91.12216 | 32959 ft | 518 kts | 134° |
| 2026-04-26 11:51 | 35.74119 | -91.05359 | 32951 ft | 518 kts | 134° |
| 2026-04-26 11:51 | 35.69531 | -90.98494 | 32942 ft | 519 kts | 134° |
| 2026-04-26 11:52 | 35.65720 | -90.92798 | 32936 ft | 519 kts | 134° |
| 2026-04-26 11:52 | 35.60345 | -90.84791 | 32937 ft | 520 kts | 134° |
| 2026-04-26 11:53 | 35.55738 | -90.77936 | 32936 ft | 521 kts | 134° |
| 2026-04-26 11:54 | 35.48820 | -90.67678 | 32935 ft | 523 kts | 134° |
| 2026-04-26 11:54 | 35.44171 | -90.60794 | 32929 ft | 524 kts | 134° |
| 2026-04-26 11:55 | 35.39513 | -90.53917 | 32932 ft | 525 kts | 134° |
| 2026-04-26 11:55 | 35.34882 | -90.47089 | 32921 ft | 526 kts | 134° |
| 2026-04-26 11:56 | 35.30176 | -90.40174 | 32918 ft | 527 kts | 134° |
| 2026-04-26 11:56 | 35.25494 | -90.33297 | 32917 ft | 527 kts | 134° |
| 2026-04-26 11:57 | 35.20803 | -90.26425 | 32913 ft | 528 kts | 134° |
| 2026-04-26 11:57 | 35.16098 | -90.19541 | 32912 ft | 529 kts | 134° |
| 2026-04-26 11:58 | 35.11350 | -90.12609 | 32912 ft | 530 kts | 135° |
| 2026-04-26 11:58 | 35.06619 | -90.05725 | 32922 ft | 531 kts | 134° |
| 2026-04-26 11:59 | 35.01990 | -89.98637 | 32915 ft | 536 kts | 124° |
| 2026-04-26 11:59 | 35.00310 | -89.94576 | 32923 ft | 540 kts | 112° |
| 2026-04-26 11:59 | 34.99263 | -89.90194 | 32946 ft | 540 kts | 99° |
| 2026-04-26 11:59 | 34.98881 | -89.85664 | 32973 ft | 537 kts | 88° |
| 2026-04-26 12:00 | 34.98944 | -89.81125 | 32976 ft | 537 kts | 86° |
| 2026-04-26 12:00 | 34.98222 | -89.72067 | 32974 ft | 541 kts | 102° |
| 2026-04-26 12:01 | 34.96492 | -89.63090 | 32959 ft | 542 kts | 101° |
| 2026-04-26 12:01 | 34.95236 | -89.54057 | 32954 ft | 542 kts | 96° |
| 2026-04-26 12:02 | 34.94092 | -89.44988 | 32949 ft | 543 kts | 99° |
| 2026-04-26 12:02 | 34.92690 | -89.35893 | 32942 ft | 544 kts | 100° |
| 2026-04-26 12:03 | 34.91341 | -89.26840 | 32944 ft | 544 kts | 99° |
| 2026-04-26 12:03 | 34.90027 | -89.17770 | 32941 ft | 545 kts | 99° |
| 2026-04-26 12:04 | 34.88686 | -89.08634 | 32946 ft | 546 kts | 99° |
| 2026-04-26 12:04 | 34.87346 | -88.99553 | 32947 ft | 546 kts | 99° |
| 2026-04-26 12:05 | 34.86009 | -88.90466 | 32954 ft | 547 kts | 99° |
| 2026-04-26 12:05 | 34.84649 | -88.81316 | 32961 ft | 547 kts | 99° |
| 2026-04-26 12:06 | 34.83286 | -88.72223 | 32965 ft | 547 kts | 99° |
| 2026-04-26 12:06 | 34.82151 | -88.64643 | 32963 ft | 548 kts | 99° |
| 2026-04-26 12:07 | 34.80775 | -88.55547 | 32961 ft | 548 kts | 99° |
| 2026-04-26 12:07 | 34.79391 | -88.46392 | 32957 ft | 548 kts | 99° |
| 2026-04-26 12:08 | 34.78002 | -88.37300 | 32952 ft | 548 kts | 99° |
| 2026-04-26 12:08 | 34.76612 | -88.28210 | 32956 ft | 548 kts | 99° |
| 2026-04-26 12:09 | 34.75205 | -88.19061 | 32951 ft | 548 kts | 99° |
| 2026-04-26 12:09 | 34.73793 | -88.09978 | 32959 ft | 548 kts | 99° |
| 2026-04-26 12:10 | 34.72385 | -88.00897 | 32949 ft | 548 kts | 99° |
| 2026-04-26 12:10 | 34.70959 | -87.91763 | 32964 ft | 548 kts | 99° |
| 2026-04-26 12:11 | 34.69530 | -87.82695 | 32964 ft | 547 kts | 99° |
| 2026-04-26 12:11 | 34.68094 | -87.73633 | 32968 ft | 547 kts | 99° |
| 2026-04-26 12:12 | 34.66659 | -87.64576 | 32969 ft | 547 kts | 100° |
| 2026-04-26 12:12 | 34.65198 | -87.55405 | 32971 ft | 547 kts | 99° |
| 2026-04-26 12:13 | 34.63754 | -87.46449 | 32969 ft | 546 kts | 99° |
| 2026-04-26 12:13 | 34.62285 | -87.37457 | 32962 ft | 546 kts | 101° |
| 2026-04-26 12:14 | 34.60598 | -87.28420 | 32964 ft | 544 kts | 102° |
| 2026-04-26 12:14 | 34.58926 | -87.19557 | 32969 ft | 541 kts | 101° |
| 2026-04-26 12:15 | 34.57294 | -87.10652 | 32976 ft | 539 kts | 101° |
| 2026-04-26 12:15 | 34.55721 | -87.01773 | 32976 ft | 537 kts | 100° |
| 2026-04-26 12:16 | 34.54169 | -86.92913 | 32975 ft | 536 kts | 102° |
| 2026-04-26 12:16 | 34.52018 | -86.84268 | 32974 ft | 535 kts | 108° |
| 2026-04-26 12:17 | 34.49637 | -86.75732 | 32973 ft | 533 kts | 107° |
| 2026-04-26 12:17 | 34.47446 | -86.67161 | 32974 ft | 532 kts | 106° |
| 2026-04-26 12:18 | 34.45264 | -86.58599 | 32974 ft | 531 kts | 107° |
| 2026-04-26 12:18 | 34.43029 | -86.50074 | 32974 ft | 530 kts | 107° |
| 2026-04-26 12:19 | 34.40789 | -86.41569 | 32987 ft | 529 kts | 107° |
| 2026-04-26 12:19 | 34.38542 | -86.33065 | 32992 ft | 531 kts | 107° |
| 2026-04-26 12:20 | 34.36293 | -86.24552 | 32990 ft | 532 kts | 107° |
| 2026-04-26 12:20 | 34.34029 | -86.16023 | 32994 ft | 533 kts | 107° |
| 2026-04-26 12:21 | 34.31766 | -86.07479 | 32991 ft | 534 kts | 107° |
| 2026-04-26 12:21 | 34.29501 | -85.98925 | 32987 ft | 534 kts | 107° |
| 2026-04-26 12:22 | 34.28835 | -85.96413 | 32991 ft | 534 kts | 107° |
| 2026-04-26 12:22 | 34.26588 | -85.87944 | 32980 ft | 525 kts | 107° |
| 2026-04-26 12:23 | 34.24373 | -85.79610 | 32977 ft | 518 kts | 107° |
| 2026-04-26 12:23 | 34.22182 | -85.71377 | 32978 ft | 511 kts | 106° |
| 2026-04-26 12:24 | 34.20024 | -85.63263 | 32971 ft | 504 kts | 106° |
| 2026-04-26 12:24 | 34.17898 | -85.55266 | 32967 ft | 497 kts | 106° |
| 2026-04-26 12:25 | 34.14783 | -85.43550 | 32967 ft | 488 kts | 106° |
| 2026-04-26 12:25 | 34.13092 | -85.37195 | 32972 ft | 484 kts | 106° |
| 2026-04-26 12:26 | 34.11048 | -85.29522 | 32968 ft | 478 kts | 106° |
| 2026-04-26 12:27 | 34.09351 | -85.23151 | 32966 ft | 474 kts | 106° |
| 2026-04-26 12:28 | 34.08951 | -85.21651 | 32973 ft | 473 kts | 106° |
| 2026-04-26 12:28 | 34.06952 | -85.14151 | 32969 ft | 468 kts | 106° |
| 2026-04-26 12:29 | 34.04984 | -85.06770 | 32957 ft | 458 kts | 106° |
| 2026-04-26 12:30 | 34.02071 | -84.95861 | 32978 ft | 451 kts | 106° |
| 2026-04-26 12:30 | 34.00478 | -84.89896 | 32965 ft | 448 kts | 106° |
| 2026-04-26 12:31 | 33.99286 | -84.85443 | 32971 ft | 445 kts | 106° |